Time;durP1;ratioP1;P1;durP2;ratioP2;P2;SDS_P1;SDS_P2;PMS_P1;PMS_P2;Temp;Humidity;BMP_temperature;BMP_pressure;BME280_temperature;BME280_humidity;BME280_pressure;Samples;Min_cycle;Max_cycle;Signal;HPM_P1;HPM_P2
2023/03/17 00:00:46;;;;;;;143.90;63.63;;;;;;;;;;10390320;28;20099;-87
2023/03/17 00:05:48;;;;;;;151.03;62.40;;;;;;;;;;10400285;28;20057;-88
2023/03/17 00:10:49;;;;;;;138.80;60.03;;;;;;;;;;10392085;28;20519;-87
2023/03/17 00:15:53;;;;;;;134.13;56.53;;;;;;;;;;10398657;28;20029;-89
2023/03/17 00:20:54;;;;;;;128.97;56.43;;;;;;;;;;10394621;28;20034;-87
2023/03/17 00:25:56;;;;;;;147.13;58.83;;;;;;;;;;10382463;28;20034;-86
2023/03/17 00:30:59;;;;;;;145.13;60.33;;;;;;;;;;10372785;28;20036;-88
2023/03/17 00:36:00;;;;;;;141.97;58.20;;;;;;;;;;10377937;28;20116;-86
2023/03/17 00:41:02;;;;;;;137.50;56.87;;;;;;;;;;10380986;28;20382;-87
2023/03/17 00:46:08;;;;;;;138.37;57.83;;;;;;;;;;10398478;28;20033;-85
2023/03/17 00:51:10;;;;;;;126.10;52.57;;;;;;;;;;10382563;28;20404;-87
2023/03/17 00:56:19;;;;;;;122.43;52.43;;;;;;;;;;10398383;28;20042;-87
2023/03/17 01:01:20;;;;;;;127.57;54.10;;;;;;;;;;10378270;28;20052;-86
2023/03/17 01:06:21;;;;;;;150.20;58.97;;;;;;;;;;10420248;28;20099;-87
2023/03/17 01:11:22;;;;;;;121.00;50.40;;;;;;;;;;10398227;28;20132;-89
2023/03/17 01:16:23;;;;;;;108.03;46.17;;;;;;;;;;10388753;28;20104;-87
2023/03/17 01:21:24;;;;;;;118.53;47.87;;;;;;;;;;10391303;28;20037;-87
2023/03/17 01:26:25;;;;;;;112.77;49.30;;;;;;;;;;10398780;28;20037;-88
2023/03/17 01:31:26;;;;;;;113.13;50.87;;;;;;;;;;10391556;28;20025;-87
2023/03/17 01:36:27;;;;;;;113.77;49.83;;;;;;;;;;10381030;28;20473;-88
2023/03/17 01:41:32;;;;;;;97.27;44.70;;;;;;;;;;10389263;28;20061;-87
2023/03/17 01:46:34;;;;;;;113.60;49.67;;;;;;;;;;10404712;28;20545;-88
2023/03/17 01:51:43;;;;;;;143.63;65.07;;;;;;;;;;10394403;28;20029;-87
2023/03/17 01:56:45;;;;;;;115.30;53.10;;;;;;;;;;10399965;28;20037;-88
2023/03/17 02:01:47;;;;;;;116.07;48.57;;;;;;;;;;10378092;28;20160;-86
2023/03/17 02:06:50;;;;;;;117.27;50.47;;;;;;;;;;10395923;28;20057;-87
2023/03/17 02:11:51;;;;;;;105.13;46.27;;;;;;;;;;10384178;28;20030;-86
2023/03/17 02:16:52;;;;;;;127.70;55.67;;;;;;;;;;10393694;28;20036;-87
2023/03/17 02:21:54;;;;;;;131.63;59.10;;;;;;;;;;10372101;28;20033;-88
2023/03/17 02:26:55;;;;;;;135.70;59.37;;;;;;;;;;10383617;28;20065;-86
2023/03/17 02:31:57;;;;;;;141.13;59.43;;;;;;;;;;10398085;28;20044;-89
2023/03/17 02:36:58;;;;;;;148.87;65.13;;;;;;;;;;10370244;28;20038;-87
2023/03/17 02:41:59;;;;;;;151.50;68.33;;;;;;;;;;10395863;28;20047;-88
2023/03/17 02:47:02;;;;;;;158.40;65.97;;;;;;;;;;10391270;28;20034;-87
2023/03/17 02:52:03;;;;;;;161.77;67.87;;;;;;;;;;10403016;28;20033;-86
2023/03/17 02:57:06;;;;;;;148.00;58.47;;;;;;;;;;10360841;28;20072;-87
2023/03/17 03:02:07;;;;;;;158.33;65.70;;;;;;;;;;10400077;28;20033;-89
2023/03/17 03:07:09;;;;;;;143.60;61.23;;;;;;;;;;10446721;23;20556;-89
2023/03/17 03:12:10;;;;;;;130.40;57.40;;;;;;;;;;10427495;28;20036;-90
2023/03/17 03:17:11;;;;;;;128.13;55.20;;;;;;;;;;10431536;28;20032;-88
2023/03/17 03:22:12;;;;;;;102.77;47.50;;;;;;;;;;10421749;28;20124;-88
2023/03/17 03:27:13;;;;;;;126.20;49.57;;;;;;;;;;10432576;28;20033;-87
2023/03/17 03:32:14;;;;;;;99.57;45.47;;;;;;;;;;10424520;28;20032;-89
2023/03/17 03:37:15;;;;;;;100.57;45.00;;;;;;;;;;10413459;28;20042;-87
2023/03/17 03:42:16;;;;;;;121.10;51.93;;;;;;;;;;10410256;28;20458;-88
2023/03/17 03:47:17;;;;;;;102.13;42.83;;;;;;;;;;10435115;28;20029;-88
2023/03/17 03:52:19;;;;;;;108.60;43.07;;;;;;;;;;10409090;28;20037;-89
2023/03/17 03:57:20;;;;;;;96.97;41.20;;;;;;;;;;10429869;28;20090;-89
2023/03/17 04:02:21;;;;;;;97.53;38.07;;;;;;;;;;10396903;28;20045;-88
2023/03/17 04:07:22;;;;;;;106.17;43.67;;;;;;;;;;10379420;28;20041;-89
2023/03/17 04:12:23;;;;;;;103.23;42.97;;;;;;;;;;10410827;28;20033;-89
2023/03/17 04:17:27;;;;;;;100.20;40.43;;;;;;;;;;10399880;28;20037;-88
2023/03/17 04:22:28;;;;;;;90.37;37.70;;;;;;;;;;10417380;28;20037;-91
2023/03/17 04:27:29;;;;;;;94.13;40.93;;;;;;;;;;10401517;28;20370;-87
2023/03/17 04:32:30;;;;;;;92.67;38.47;;;;;;;;;;10452090;22;20405;-89
2023/03/17 04:37:31;;;;;;;91.43;41.60;;;;;;;;;;10449027;28;20037;-88
2023/03/17 04:42:33;;;;;;;97.20;41.57;;;;;;;;;;10427310;28;20067;-90
2023/03/17 04:47:51;;;;;;;81.40;34.60;;;;;;;;;;10416321;28;20065;-91
2023/03/17 04:52:52;;;;;;;72.50;30.47;;;;;;;;;;10420990;28;20681;-90
2023/03/17 04:57:53;;;;;;;70.20;31.77;;;;;;;;;;10404851;28;20702;-88
2023/03/17 05:02:54;;;;;;;73.20;31.57;;;;;;;;;;10418891;28;20045;-88
2023/03/17 05:07:55;;;;;;;56.43;24.60;;;;;;;;;;10428678;28;20067;-88
2023/03/17 05:12:56;;;;;;;60.20;26.50;;;;;;;;;;10428708;28;20463;-86
2023/03/17 05:17:57;;;;;;;53.77;25.27;;;;;;;;;;10453146;22;20060;-86
2023/03/17 05:22:58;;;;;;;55.10;25.47;;;;;;;;;;10442593;28;20071;-88
2023/03/17 05:27:59;;;;;;;57.70;28.70;;;;;;;;;;10442460;28;20485;-87
2023/03/17 05:33:00;;;;;;;58.67;24.73;;;;;;;;;;10484565;28;20435;-88
2023/03/17 05:38:01;;;;;;;59.70;26.67;;;;;;;;;;10465471;28;20033;-87
2023/03/17 05:43:03;;;;;;;64.40;28.10;;;;;;;;;;10476360;28;20025;-87
2023/03/17 05:48:05;;;;;;;64.07;29.17;;;;;;;;;;10488410;28;20062;-88
2023/03/17 05:53:06;;;;;;;63.70;29.10;;;;;;;;;;10475275;28;20072;-88
2023/03/17 05:58:08;;;;;;;87.40;34.00;;;;;;;;;;10486256;28;20032;-87
2023/03/17 06:03:09;;;;;;;75.70;34.40;;;;;;;;;;10475930;28;20037;-87
2023/03/17 06:08:11;;;;;;;81.03;37.10;;;;;;;;;;10469685;28;20607;-87
2023/03/17 06:13:12;;;;;;;84.00;36.97;;;;;;;;;;10480900;28;20075;-87
2023/03/17 06:18:13;;;;;;;68.33;29.33;;;;;;;;;;10459152;28;20052;-87
2023/03/17 06:23:14;;;;;;;69.17;29.50;;;;;;;;;;10478011;28;20053;-88
2023/03/17 06:28:15;;;;;;;69.13;30.73;;;;;;;;;;10459828;28;20033;-86
2023/03/17 06:33:17;;;;;;;61.17;29.47;;;;;;;;;;10457145;28;20513;-87
2023/03/17 06:38:19;;;;;;;67.63;29.87;;;;;;;;;;10461274;28;20024;-87
2023/03/17 06:43:21;;;;;;;82.43;47.87;;;;;;;;;;10472300;28;20120;-87
2023/03/17 06:48:22;;;;;;;69.43;32.27;;;;;;;;;;10434914;28;20032;-86
2023/03/17 06:53:23;;;;;;;53.93;29.37;;;;;;;;;;10472004;28;20162;-87
2023/03/17 06:58:24;;;;;;;42.60;20.90;;;;;;;;;;10469708;28;20058;-86
2023/03/17 07:03:26;;;;;;;47.70;22.57;;;;;;;;;;10458600;28;20037;-86
2023/03/17 07:08:29;;;;;;;44.93;19.53;;;;;;;;;;10466111;28;20032;-85
2023/03/17 07:13:34;;;;;;;52.47;25.20;;;;;;;;;;10465200;28;20032;-84
2023/03/17 07:18:35;;;;;;;39.73;19.13;;;;;;;;;;10481844;28;20118;-83
2023/03/17 07:23:36;;;;;;;49.27;26.37;;;;;;;;;;10472884;28;20042;-86
2023/03/17 07:28:38;;;;;;;43.30;20.80;;;;;;;;;;10472484;28;20530;-85
2023/03/17 07:33:41;;;;;;;49.60;28.27;;;;;;;;;;10471346;28;20057;-84
2023/03/17 07:38:42;;;;;;;32.47;17.17;;;;;;;;;;10444388;28;20120;-84
2023/03/17 07:43:43;;;;;;;43.40;21.53;;;;;;;;;;10471017;28;20656;-84
2023/03/17 07:48:45;;;;;;;35.17;17.67;;;;;;;;;;10463197;28;20128;-84
2023/03/17 07:53:46;;;;;;;31.23;14.77;;;;;;;;;;10470260;28;20032;-84
2023/03/17 07:58:47;;;;;;;30.90;15.10;;;;;;;;;;10484516;28;20111;-86
2023/03/17 08:03:48;;;;;;;29.57;15.33;;;;;;;;;;10449091;28;20029;-84
2023/03/17 08:08:49;;;;;;;33.43;15.17;;;;;;;;;;10469935;28;20029;-84
2023/03/17 08:13:50;;;;;;;30.83;15.30;;;;;;;;;;10449785;28;20636;-84
2023/03/17 08:18:51;;;;;;;32.33;14.57;;;;;;;;;;10434616;28;20053;-86
2023/03/17 08:23:53;;;;;;;30.83;14.17;;;;;;;;;;10468191;28;20053;-84
2023/03/17 08:28:54;;;;;;;25.90;12.13;;;;;;;;;;10458009;28;20116;-85
2023/03/17 08:33:58;;;;;;;32.40;21.67;;;;;;;;;;10465881;28;20025;-84
2023/03/17 08:38:59;;;;;;;21.17;10.97;;;;;;;;;;10456232;28;20028;-84
2023/03/17 08:44:00;;;;;;;30.43;15.87;;;;;;;;;;10460742;28;20032;-85
2023/03/17 08:49:02;;;;;;;40.93;15.60;;;;;;;;;;10463220;28;20051;-84
2023/03/17 08:54:04;;;;;;;22.20;13.40;;;;;;;;;;10463866;28;20709;-83
2023/03/17 08:59:06;;;;;;;21.60;9.93;;;;;;;;;;10470527;28;20160;-83
2023/03/17 09:04:07;;;;;;;30.57;12.47;;;;;;;;;;10482579;28;20036;-84
2023/03/17 09:09:09;;;;;;;18.63;8.93;;;;;;;;;;10473704;28;20058;-83
2023/03/17 09:14:10;;;;;;;16.10;7.70;;;;;;;;;;10464557;28;20032;-85
2023/03/17 09:19:11;;;;;;;15.33;8.30;;;;;;;;;;10448578;28;20099;-83
2023/03/17 09:24:12;;;;;;;19.57;7.93;;;;;;;;;;10462372;28;20489;-83
2023/03/17 09:29:14;;;;;;;15.50;6.93;;;;;;;;;;10454026;28;20026;-85
2023/03/17 09:34:15;;;;;;;10.63;6.37;;;;;;;;;;10476933;28;20070;-84
2023/03/17 09:39:16;;;;;;;18.33;6.70;;;;;;;;;;10469127;28;20427;-84
2023/03/17 09:44:17;;;;;;;10.73;5.40;;;;;;;;;;10460109;28;20033;-85
2023/03/17 09:49:21;;;;;;;19.33;8.48;;;;;;;;;;10461826;28;20082;-84
2023/03/17 09:54:27;;;;;;;52.50;22.25;;;;;;;;;;10473280;28;20366;-84
2023/03/17 09:59:29;;;;;;;25.23;11.60;;;;;;;;;;10446250;28;20511;-83
2023/03/17 10:04:31;;;;;;;17.05;7.72;;;;;;;;;;10461476;28;20452;-84
2023/03/17 10:09:41;;;;;;;64.05;25.88;;;;;;;;;;10473121;28;20036;-84
2023/03/17 10:14:42;;;;;;;25.88;11.02;;;;;;;;;;10469994;28;20040;-85
2023/03/17 10:19:57;;;;;;;12.02;6.07;;;;;;;;;;10466558;28;20702;-84
2023/03/17 10:25:01;;;;;;;23.37;10.37;;;;;;;;;;10451654;28;20041;-85
2023/03/17 10:30:03;;;;;;;13.68;5.78;;;;;;;;;;10459667;28;20025;-85
2023/03/17 10:35:05;;;;;;;41.28;17.55;;;;;;;;;;10459612;28;20463;-84
2023/03/17 10:40:09;;;;;;;12.90;6.80;;;;;;;;;;10459152;28;20091;-85
2023/03/17 10:45:15;;;;;;;16.70;7.72;;;;;;;;;;10458080;28;20131;-83
2023/03/17 10:50:25;;;;;;;33.67;15.43;;;;;;;;;;10462680;28;20039;-84
2023/03/17 10:55:28;;;;;;;11.05;6.32;;;;;;;;;;10472375;28;20060;-87
2023/03/17 11:00:33;;;;;;;18.95;8.25;;;;;;;;;;10473514;28;20040;-82
2023/03/17 11:05:38;;;;;;;11.88;5.13;;;;;;;;;;10473690;28;20032;-83
2023/03/17 11:10:40;;;;;;;12.75;7.07;;;;;;;;;;10473379;28;20024;-84
2023/03/17 11:15:45;;;;;;;7.80;3.83;;;;;;;;;;10457825;28;20076;-84
2023/03/17 11:20:49;;;;;;;54.90;25.25;;;;;;;;;;10459128;28;20055;-83
2023/03/17 11:25:57;;;;;;;12.90;6.20;;;;;;;;;;10467034;28;20048;-83
2023/03/17 11:31:03;;;;;;;10.95;4.35;;;;;;;;;;10430984;28;20107;-83
2023/03/17 11:36:12;;;;;;;8.10;4.05;;;;;;;;;;10451583;28;20046;-83
2023/03/17 11:41:23;;;;;;;31.40;14.98;;;;;;;;;;10447565;28;20076;-84
2023/03/17 11:46:29;;;;;;;58.25;22.80;;;;;;;;;;10469751;28;20594;-84
2023/03/17 11:51:51;;;;;;;71.15;26.13;;;;;;;;;;10457709;28;20030;-83
2023/03/17 11:56:55;;;;;;;10.68;5.40;;;;;;;;;;10452310;28;20029;-83
2023/03/17 12:02:10;;;;;;;18.95;8.82;;;;;;;;;;10469713;28;20119;-83
2023/03/17 12:07:19;;;;;;;41.10;17.70;;;;;;;;;;10478333;28;20090;-83
2023/03/17 12:12:24;;;;;;;20.45;12.48;;;;;;;;;;10457492;28;20060;-83
2023/03/17 12:17:32;;;;;;;16.07;10.73;;;;;;;;;;10470404;28;20067;-83
2023/03/17 12:22:42;;;;;;;24.17;11.27;;;;;;;;;;10456282;28;20317;-84
2023/03/17 12:27:52;;;;;;;25.58;12.20;;;;;;;;;;10461345;28;20476;-83
2023/03/17 12:33:00;;;;;;;20.02;9.07;;;;;;;;;;10463036;28;20487;-85
2023/03/17 12:38:05;;;;;;;13.30;6.70;;;;;;;;;;10440395;28;20106;-84
2023/03/17 12:43:09;;;;;;;18.17;11.18;;;;;;;;;;10451689;28;20037;-82
2023/03/17 12:48:16;;;;;;;16.15;10.63;;;;;;;;;;10458527;28;20042;-83
2023/03/17 12:53:25;;;;;;;12.80;6.65;;;;;;;;;;10462958;28;20487;-84
2023/03/17 12:58:29;;;;;;;54.20;23.08;;;;;;;;;;10462940;28;20032;-83
2023/03/17 13:03:35;;;;;;;53.15;20.63;;;;;;;;;;10467093;28;20048;-83
2023/03/17 13:08:39;;;;;;;13.95;7.63;;;;;;;;;;10476404;22;20064;-82
2023/03/17 13:13:45;;;;;;;19.60;7.95;;;;;;;;;;10447037;28;20465;-83
2023/03/17 13:18:47;;;;;;;16.67;8.73;;;;;;;;;;10442655;28;20036;-83
2023/03/17 13:23:58;;;;;;;12.23;7.35;;;;;;;;;;10448747;28;20053;-82
2023/03/17 13:29:02;;;;;;;20.15;9.80;;;;;;;;;;10436059;28;20135;-83
2023/03/17 13:34:16;;;;;;;26.45;14.40;;;;;;;;;;10430642;28;20553;-83
2023/03/17 13:39:42;;;;;;;21.48;10.45;;;;;;;;;;10417964;28;20086;-83
2023/03/17 13:45:04;;;;;;;10.25;5.70;;;;;;;;;;10425700;28;20037;-84
2023/03/17 13:50:16;;;;;;;15.27;8.27;;;;;;;;;;10414094;28;20095;-83
2023/03/17 13:55:19;;;;;;;27.45;11.65;;;;;;;;;;10404298;28;20552;-83
2023/03/17 14:00:23;;;;;;;25.58;11.48;;;;;;;;;;10398584;28;20040;-82
2023/03/17 14:05:26;;;;;;;37.42;22.67;;;;;;;;;;10411607;28;20093;-81
2023/03/17 14:10:28;;;;;;;13.43;7.70;;;;;;;;;;10411036;28;20103;-82
2023/03/17 14:15:48;;;;;;;10.05;5.82;;;;;;;;;;10417743;28;20453;-83
2023/03/17 14:20:53;;;;;;;17.65;7.63;;;;;;;;;;10405731;28;20410;-83
2023/03/17 14:25:55;;;;;;;17.43;7.63;;;;;;;;;;10428517;28;20143;-84
2023/03/17 14:31:00;;;;;;;13.95;6.55;;;;;;;;;;10442418;28;20075;-83
2023/03/17 14:36:03;;;;;;;14.07;7.28;;;;;;;;;;10417878;28;20071;-83
2023/03/17 14:41:15;;;;;;;13.65;8.88;;;;;;;;;;10434044;28;20033;-83
2023/03/17 14:46:24;;;;;;;12.48;7.22;;;;;;;;;;10431386;28;20037;-84
2023/03/17 14:51:30;;;;;;;11.93;6.68;;;;;;;;;;10428651;28;20138;-84
2023/03/17 14:56:31;;;;;;;;;;;;;;;;;;10409962;28;20036;-83
2023/03/17 15:01:34;;;;;;;12.93;7.07;;;;;;;;;;10425247;28;19917;-82
2023/03/17 15:06:35;;;;;;;33.67;17.05;;;;;;;;;;10445711;28;20028;-83
2023/03/17 15:11:38;;;;;;;35.88;24.15;;;;;;;;;;10436651;28;20072;-84
2023/03/17 15:16:40;;;;;;;12.98;7.28;;;;;;;;;;10408691;28;20581;-85
2023/03/17 15:21:42;;;;;;;14.23;6.40;;;;;;;;;;10434483;28;20052;-87
2023/03/17 15:26:43;;;;;;;12.07;6.45;;;;;;;;;;10431594;28;20048;-85
2023/03/17 15:31:44;;;;;;;13.20;7.55;;;;;;;;;;10427103;28;20409;-85
2023/03/17 15:36:46;;;;;;;13.65;7.97;;;;;;;;;;10420734;28;20041;-83
2023/03/17 15:41:47;;;;;;;14.15;7.00;;;;;;;;;;10434788;28;20047;-82
2023/03/17 15:46:48;;;;;;;211.60;97.32;;;;;;;;;;10402588;28;20038;-82
2023/03/17 15:51:51;;;;;;;1293.88;680.80;;;;;;;;;;10439447;28;20056;-83
2023/03/17 15:56:52;;;;;;;321.48;160.18;;;;;;;;;;10430510;28;20666;-84
2023/03/17 16:01:53;;;;;;;129.48;69.60;;;;;;;;;;10424549;28;20045;-84
2023/03/17 16:06:54;;;;;;;120.25;76.28;;;;;;;;;;10409537;28;20134;-84
2023/03/17 16:11:55;;;;;;;195.10;106.95;;;;;;;;;;10412784;28;20671;-83
2023/03/17 16:16:56;;;;;;;391.08;198.32;;;;;;;;;;10416997;28;20045;-83
2023/03/17 16:21:57;;;;;;;94.05;39.35;;;;;;;;;;10428263;28;20037;-83
2023/03/17 16:26:59;;;;;;;25.10;11.15;;;;;;;;;;10445027;28;20392;-83
2023/03/17 16:32:00;;;;;;;15.65;7.43;;;;;;;;;;10434583;28;20039;-84
2023/03/17 16:37:02;;;;;;;15.47;7.53;;;;;;;;;;10418127;28;20125;-83
2023/03/17 16:42:03;;;;;;;63.30;25.23;;;;;;;;;;10424769;28;20128;-83
2023/03/17 16:47:04;;;;;;;58.47;24.87;;;;;;;;;;10402202;28;20029;-84
2023/03/17 16:52:05;;;;;;;102.50;39.93;;;;;;;;;;10441448;28;20025;-83
2023/03/17 16:57:09;;;;;;;56.40;23.63;;;;;;;;;;10413075;28;20029;-84
2023/03/17 17:02:14;;;;;;;48.60;20.13;;;;;;;;;;10406538;28;20408;-82
2023/03/17 17:07:15;;;;;;;68.27;32.60;;;;;;;;;;10417592;28;20044;-82
2023/03/17 17:12:16;;;;;;;58.23;29.07;;;;;;;;;;10415773;28;20052;-85
2023/03/17 17:17:17;;;;;;;60.57;32.43;;;;;;;;;;10428060;28;20385;-83
2023/03/17 17:22:18;;;;;;;76.87;38.93;;;;;;;;;;10408617;28;20044;-82
2023/03/17 17:27:19;;;;;;;79.07;35.97;;;;;;;;;;10405315;28;20037;-82
2023/03/17 17:32:22;;;;;;;50.43;23.13;;;;;;;;;;10406063;28;20045;-81
2023/03/17 17:37:23;;;;;;;28.93;12.07;;;;;;;;;;10406756;28;20014;-82
2023/03/17 17:42:24;;;;;;;20.20;9.13;;;;;;;;;;10406982;28;20040;-82
2023/03/17 17:47:25;;;;;;;30.53;12.00;;;;;;;;;;10406853;28;20087;-81
2023/03/17 17:52:26;;;;;;;27.57;12.53;;;;;;;;;;10421361;28;20037;-82
2023/03/17 17:57:28;;;;;;;24.70;11.70;;;;;;;;;;10437242;28;20078;-82
2023/03/17 18:02:29;;;;;;;29.07;13.63;;;;;;;;;;10421762;28;20029;-83
2023/03/17 18:07:30;;;;;;;52.37;21.50;;;;;;;;;;10422926;28;20087;-82
2023/03/17 18:12:31;;;;;;;44.27;19.43;;;;;;;;;;10445811;28;20056;-83
2023/03/17 18:17:32;;;;;;;35.13;14.50;;;;;;;;;;10407641;28;20029;-82
2023/03/17 18:22:33;;;;;;;50.03;22.73;;;;;;;;;;10421124;28;20037;-83
2023/03/17 18:27:35;;;;;;;61.47;27.10;;;;;;;;;;10425547;28;20037;-83
2023/03/17 18:32:36;;;;;;;59.43;26.20;;;;;;;;;;10436447;28;20397;-84
2023/03/17 18:37:37;;;;;;;62.93;26.10;;;;;;;;;;10418156;28;20039;-84
2023/03/17 18:42:38;;;;;;;60.80;26.20;;;;;;;;;;10427492;28;20034;-80
2023/03/17 18:47:40;;;;;;;96.67;39.23;;;;;;;;;;10410052;28;20393;-80
2023/03/17 18:52:42;;;;;;;63.03;26.70;;;;;;;;;;10404818;28;20061;-82
2023/03/17 18:57:44;;;;;;;56.83;22.47;;;;;;;;;;10405031;28;20044;-81
2023/03/17 19:02:45;;;;;;;59.00;23.67;;;;;;;;;;10419372;28;20052;-81
2023/03/17 19:07:46;;;;;;;57.37;22.80;;;;;;;;;;10405232;28;20512;-79
2023/03/17 19:12:49;;;;;;;64.20;26.90;;;;;;;;;;10416534;28;20033;-81
2023/03/17 19:17:50;;;;;;;54.13;22.73;;;;;;;;;;10411257;28;20030;-80
2023/03/17 19:22:54;;;;;;;56.60;23.77;;;;;;;;;;10406785;28;20045;-82
2023/03/17 19:27:55;;;;;;;47.10;21.33;;;;;;;;;;10401765;28;20036;-79
2023/03/17 19:32:56;;;;;;;52.10;24.57;;;;;;;;;;10407809;28;20033;-80
2023/03/17 19:37:57;;;;;;;69.23;31.57;;;;;;;;;;10415879;28;20495;-81
2023/03/17 19:42:58;;;;;;;71.17;34.80;;;;;;;;;;10400293;28;20033;-81
2023/03/17 19:47:59;;;;;;;54.80;22.57;;;;;;;;;;10410989;28;20018;-79
2023/03/17 19:53:00;;;;;;;56.83;23.77;;;;;;;;;;10425563;28;20120;-81
2023/03/17 19:58:03;;;;;;;40.00;17.00;;;;;;;;;;10421759;28;20025;-81
2023/03/17 20:03:04;;;;;;;48.17;20.07;;;;;;;;;;10419965;28;20134;-81
2023/03/17 20:08:06;;;;;;;60.07;26.83;;;;;;;;;;10431117;28;20564;-81
2023/03/17 20:13:08;;;;;;;76.33;31.53;;;;;;;;;;10410109;28;20109;-83
2023/03/17 20:18:09;;;;;;;90.17;36.53;;;;;;;;;;10418168;28;20034;-82
2023/03/17 20:23:11;;;;;;;91.70;36.20;;;;;;;;;;10419838;28;20041;-81
2023/03/17 20:28:12;;;;;;;98.90;37.83;;;;;;;;;;10442040;28;20465;-83
2023/03/17 20:33:14;;;;;;;106.37;39.17;;;;;;;;;;10429137;28;20032;-82
2023/03/17 20:38:15;;;;;;;84.63;33.80;;;;;;;;;;10441922;28;20037;-82
2023/03/17 20:43:16;;;;;;;92.97;33.27;;;;;;;;;;10438862;28;20174;-83
2023/03/17 20:48:17;;;;;;;64.93;25.43;;;;;;;;;;10428811;28;20032;-81
2023/03/17 20:53:18;;;;;;;56.53;21.50;;;;;;;;;;10440695;28;20044;-82
2023/03/17 20:58:19;;;;;;;114.27;36.80;;;;;;;;;;10442214;28;20056;-81
2023/03/17 21:03:20;;;;;;;60.07;23.27;;;;;;;;;;10423675;28;20039;-81
2023/03/17 21:08:22;;;;;;;65.57;26.00;;;;;;;;;;10449217;28;20057;-82
2023/03/17 21:13:23;;;;;;;52.07;21.73;;;;;;;;;;10437952;28;20021;-82
2023/03/17 21:18:24;;;;;;;44.70;18.13;;;;;;;;;;10442671;28;20423;-81
2023/03/17 21:23:25;;;;;;;37.97;16.70;;;;;;;;;;10449227;28;20575;-81
2023/03/17 21:28:26;;;;;;;45.00;17.87;;;;;;;;;;10440587;28;20037;-81
2023/03/17 21:33:28;;;;;;;48.67;19.97;;;;;;;;;;10443752;28;20439;-81
2023/03/17 21:38:30;;;;;;;48.50;20.33;;;;;;;;;;10436980;28;20025;-82
2023/03/17 21:43:31;;;;;;;53.63;21.90;;;;;;;;;;10442223;28;20381;-82
2023/03/17 21:48:32;;;;;;;62.00;22.90;;;;;;;;;;10446456;28;20039;-81
2023/03/17 21:53:33;;;;;;;85.97;28.83;;;;;;;;;;10445891;28;20036;-81
2023/03/17 21:58:34;;;;;;;64.53;24.93;;;;;;;;;;10447166;28;20031;-81
2023/03/17 22:03:38;;;;;;;68.13;25.90;;;;;;;;;;10443265;28;20443;-81
2023/03/17 22:08:39;;;;;;;67.17;26.73;;;;;;;;;;10427548;28;20068;-81
2023/03/17 22:13:40;;;;;;;50.90;21.67;;;;;;;;;;10446969;28;20622;-81
2023/03/17 22:18:41;;;;;;;48.23;19.90;;;;;;;;;;10437831;28;20377;-79
2023/03/17 22:23:43;;;;;;;50.97;21.07;;;;;;;;;;10439296;28;20051;-81
2023/03/17 22:28:45;;;;;;;43.60;18.30;;;;;;;;;;10434751;28;20040;-83
2023/03/17 22:33:46;;;;;;;46.90;19.27;;;;;;;;;;10443768;28;20033;-82
2023/03/17 22:38:48;;;;;;;44.97;17.30;;;;;;;;;;10434536;28;20037;-81
2023/03/17 22:43:49;;;;;;;41.70;18.67;;;;;;;;;;10428016;28;20041;-81
2023/03/17 22:48:51;;;;;;;59.00;23.17;;;;;;;;;;10430129;28;20392;-83
2023/03/17 22:53:52;;;;;;;52.33;20.13;;;;;;;;;;10437091;28;20025;-81
2023/03/17 22:58:54;;;;;;;47.13;20.30;;;;;;;;;;10434303;28;20024;-83
2023/03/17 23:03:55;;;;;;;45.33;19.60;;;;;;;;;;10438875;28;20079;-83
2023/03/17 23:08:56;;;;;;;43.50;18.57;;;;;;;;;;10432804;28;20063;-81
2023/03/17 23:13:58;;;;;;;48.43;18.17;;;;;;;;;;10439452;28;20460;-81
2023/03/17 23:18:59;;;;;;;45.43;17.43;;;;;;;;;;10427075;28;20652;-82
2023/03/17 23:24:00;;;;;;;44.47;18.47;;;;;;;;;;10427211;28;20119;-83
2023/03/17 23:29:02;;;;;;;41.77;16.57;;;;;;;;;;10443993;28;20040;-81
2023/03/17 23:34:05;;;;;;;42.30;18.20;;;;;;;;;;10421670;28;20033;-81
2023/03/17 23:39:07;;;;;;;40.90;17.93;;;;;;;;;;10444192;28;20116;-83
2023/03/17 23:44:08;;;;;;;44.53;18.00;;;;;;;;;;10433878;28;20439;-81
2023/03/17 23:49:11;;;;;;;53.17;20.03;;;;;;;;;;10424777;28;20028;-81
2023/03/17 23:54:13;;;;;;;48.23;21.27;;;;;;;;;;10430462;28;20128;-81
2023/03/17 23:59:14;;;;;;;49.47;20.10;;;;;;;;;;10433445;28;20029;-81
